Terminal Aerodrome Forecast
Issued by NWS Charleston, WV

Current Version | Previous Version | Graphics & Text | Print | Product List | Glossary On
Versions: 1 2 3 4 5 6 7 8 9 10 11 12 13 14 15 16 17 18 19 20 21 22 23 24 25 26
000
FTUS41 KRLX 170900 AAA
TAFBKW
TAF AMD
KBKW 170904Z 1709/1806 00000KT 6SM BR BKN005 OVC035
      TEMPO 1710/1713 1/2SM FG OVC002
     FM171500 VRB03KT P6SM SCT020=

USA.gov is the U.S. government's official web portal to all federal, state and local government web resources and services.